sensor_id;sensor_type;location;lat;lon;timestamp;temperature;humidity
40556;DHT22;26250;45.422;11.100;2022-08-19T00:02:02;24.20;98.70
40556;DHT22;26250;45.422;11.100;2022-08-19T00:04:33;24.10;98.90
40556;DHT22;26250;45.422;11.100;2022-08-19T00:07:04;24.20;99.10
40556;DHT22;26250;45.422;11.100;2022-08-19T00:09:31;24.10;99.80
40556;DHT22;26250;45.422;11.100;2022-08-19T00:11:59;24.00;99.90
40556;DHT22;26250;45.422;11.100;2022-08-19T00:14:27;23.90;99.90
40556;DHT22;26250;45.422;11.100;2022-08-19T00:16:54;23.80;99.90
40556;DHT22;26250;45.422;11.100;2022-08-19T00:19:22;23.80;99.90
40556;DHT22;26250;45.422;11.100;2022-08-19T00:21:49;23.80;99.90
40556;DHT22;26250;45.422;11.100;2022-08-19T00:24:16;23.70;99.90
40556;DHT22;26250;45.422;11.100;2022-08-19T00:26:44;23.70;99.90
40556;DHT22;26250;45.422;11.100;2022-08-19T00:29:13;23.50;99.60
40556;DHT22;26250;45.422;11.100;2022-08-19T00:31:41;23.40;99.50
40556;DHT22;26250;45.422;11.100;2022-08-19T00:34:10;23.40;99.10
40556;DHT22;26250;45.422;11.100;2022-08-19T00:36:41;23.30;99.50
40556;DHT22;26250;45.422;11.100;2022-08-19T00:39:09;23.30;99.40
40556;DHT22;26250;45.422;11.100;2022-08-19T00:41:36;23.20;99.20
40556;DHT22;26250;45.422;11.100;2022-08-19T00:44:06;23.30;99.50
40556;DHT22;26250;45.422;11.100;2022-08-19T00:46:37;23.40;99.80
40556;DHT22;26250;45.422;11.100;2022-08-19T00:49:27;23.50;99.50
40556;DHT22;26250;45.422;11.100;2022-08-19T00:52:00;23.50;98.50
40556;DHT22;26250;45.422;11.100;2022-08-19T00:54:28;23.60;98.50
40556;DHT22;26250;45.422;11.100;2022-08-19T00:56:58;23.60;97.70
40556;DHT22;26250;45.422;11.100;2022-08-19T00:59:28;23.60;97.40
40556;DHT22;26250;45.422;11.100;2022-08-19T01:02:16;23.70;97.00
40556;DHT22;26250;45.422;11.100;2022-08-19T01:04:43;23.80;97.60
40556;DHT22;26250;45.422;11.100;2022-08-19T01:07:10;23.80;99.10
40556;DHT22;26250;45.422;11.100;2022-08-19T01:09:45;23.60;99.70
40556;DHT22;26250;45.422;11.100;2022-08-19T01:12:13;23.50;99.90
40556;DHT22;26250;45.422;11.100;2022-08-19T01:14:40;23.40;99.90
40556;DHT22;26250;45.422;11.100;2022-08-19T01:17:10;23.30;99.90
40556;DHT22;26250;45.422;11.100;2022-08-19T01:19:40;23.30;99.90
40556;DHT22;26250;45.422;11.100;2022-08-19T01:22:36;23.30;98.50
40556;DHT22;26250;45.422;11.100;2022-08-19T01:25:07;23.30;99.90
40556;DHT22;26250;45.422;11.100;2022-08-19T01:27:43;23.20;99.10
40556;DHT22;26250;45.422;11.100;2022-08-19T01:30:18;23.20;99.70
40556;DHT22;26250;45.422;11.100;2022-08-19T01:32:45;23.20;99.90
40556;DHT22;26250;45.422;11.100;2022-08-19T01:35:13;23.30;99.90
40556;DHT22;26250;45.422;11.100;2022-08-19T01:40:17;23.20;99.90
40556;DHT22;26250;45.422;11.100;2022-08-19T01:42:48;23.20;99.90
40556;DHT22;26250;45.422;11.100;2022-08-19T01:45:17;23.20;99.90
40556;DHT22;26250;45.422;11.100;2022-08-19T01:47:44;23.20;99.90
40556;DHT22;26250;45.422;11.100;2022-08-19T01:50:27;23.10;99.90
40556;DHT22;26250;45.422;11.100;2022-08-19T01:52:54;23.10;99.90
40556;DHT22;26250;45.422;11.100;2022-08-19T01:55:36;23.20;99.90
40556;DHT22;26250;45.422;11.100;2022-08-19T01:58:13;23.20;99.90
40556;DHT22;26250;45.422;11.100;2022-08-19T02:00:41;23.20;99.90
40556;DHT22;26250;45.422;11.100;2022-08-19T02:03:08;23.30;99.90
40556;DHT22;26250;45.422;11.100;2022-08-19T02:05:37;23.40;99.90
40556;DHT22;26250;45.422;11.100;2022-08-19T02:08:04;23.40;99.90
40556;DHT22;26250;45.422;11.100;2022-08-19T02:10:31;23.50;99.90
40556;DHT22;26250;45.422;11.100;2022-08-19T02:12:58;23.50;99.90
40556;DHT22;26250;45.422;11.100;2022-08-19T02:15:25;23.50;99.90
40556;DHT22;26250;45.422;11.100;2022-08-19T02:17:52;23.50;99.90
40556;DHT22;26250;45.422;11.100;2022-08-19T02:20:19;23.60;99.90
40556;DHT22;26250;45.422;11.100;2022-08-19T02:22:46;23.50;99.90
40556;DHT22;26250;45.422;11.100;2022-08-19T02:25:14;23.50;99.90
40556;DHT22;26250;45.422;11.100;2022-08-19T02:27:42;23.60;99.90
40556;DHT22;26250;45.422;11.100;2022-08-19T02:30:13;23.50;99.90
40556;DHT22;26250;45.422;11.100;2022-08-19T02:32:40;23.50;99.90
40556;DHT22;26250;45.422;11.100;2022-08-19T02:35:20;23.40;99.90
40556;DHT22;26250;45.422;11.100;2022-08-19T02:37:48;23.30;99.90
40556;DHT22;26250;45.422;11.100;2022-08-19T02:40:34;23.40;99.90
40556;DHT22;26250;45.422;11.100;2022-08-19T02:43:06;23.30;99.90
40556;DHT22;26250;45.422;11.100;2022-08-19T02:45:35;23.30;99.90
40556;DHT22;26250;45.422;11.100;2022-08-19T02:48:07;23.30;99.90
40556;DHT22;26250;45.422;11.100;2022-08-19T02:50:48;23.20;99.90
40556;DHT22;26250;45.422;11.100;2022-08-19T02:53:23;23.20;99.90
40556;DHT22;26250;45.422;11.100;2022-08-19T02:55:51;23.20;99.90
40556;DHT22;26250;45.422;11.100;2022-08-19T02:58:19;23.20;99.90
40556;DHT22;26250;45.422;11.100;2022-08-19T03:00:49;23.00;99.90
40556;DHT22;26250;45.422;11.100;2022-08-19T03:03:17;23.10;99.90
40556;DHT22;26250;45.422;11.100;2022-08-19T03:05:46;23.10;99.90
40556;DHT22;26250;45.422;11.100;2022-08-19T03:08:23;23.00;99.90
40556;DHT22;26250;45.422;11.100;2022-08-19T03:10:51;23.10;99.90
40556;DHT22;26250;45.422;11.100;2022-08-19T03:13:20;23.10;99.90
40556;DHT22;26250;45.422;11.100;2022-08-19T03:15:47;23.10;99.90
40556;DHT22;26250;45.422;11.100;2022-08-19T03:18:15;23.10;99.90
40556;DHT22;26250;45.422;11.100;2022-08-19T03:20:49;23.10;99.90
40556;DHT22;26250;45.422;11.100;2022-08-19T03:23:16;23.10;99.90
40556;DHT22;26250;45.422;11.100;2022-08-19T03:25:45;23.10;99.90
40556;DHT22;26250;45.422;11.100;2022-08-19T03:28:28;22.90;99.90
40556;DHT22;26250;45.422;11.100;2022-08-19T03:31:02;23.00;99.90
40556;DHT22;26250;45.422;11.100;2022-08-19T03:33:30;23.00;99.90
40556;DHT22;26250;45.422;11.100;2022-08-19T03:36:15;23.00;99.90
40556;DHT22;26250;45.422;11.100;2022-08-19T03:38:47;22.90;99.90
40556;DHT22;26250;45.422;11.100;2022-08-19T03:41:25;22.90;99.90
40556;DHT22;26250;45.422;11.100;2022-08-19T03:44:11;22.80;99.90
40556;DHT22;26250;45.422;11.100;2022-08-19T03:46:44;22.80;99.90
40556;DHT22;26250;45.422;11.100;2022-08-19T03:49:11;22.70;99.90
40556;DHT22;26250;45.422;11.100;2022-08-19T03:51:41;22.60;99.90
40556;DHT22;26250;45.422;11.100;2022-08-19T03:54:10;22.60;99.90
40556;DHT22;26250;45.422;11.100;2022-08-19T03:56:39;22.70;99.90
40556;DHT22;26250;45.422;11.100;2022-08-19T03:59:10;22.70;99.90
40556;DHT22;26250;45.422;11.100;2022-08-19T04:01:37;22.70;99.90
40556;DHT22;26250;45.422;11.100;2022-08-19T04:04:05;22.70;99.90
40556;DHT22;26250;45.422;11.100;2022-08-19T04:06:34;22.70;99.90
40556;DHT22;26250;45.422;11.100;2022-08-19T04:09:07;22.70;99.90
40556;DHT22;26250;45.422;11.100;2022-08-19T04:11:41;22.70;99.90
40556;DHT22;26250;45.422;11.100;2022-08-19T04:14:22;22.80;99.90
40556;DHT22;26250;45.422;11.100;2022-08-19T04:16:51;22.90;99.90
40556;DHT22;26250;45.422;11.100;2022-08-19T04:19:19;22.90;99.90
40556;DHT22;26250;45.422;11.100;2022-08-19T04:21:48;22.90;99.90
40556;DHT22;26250;45.422;11.100;2022-08-19T04:24:18;22.90;99.90
40556;DHT22;26250;45.422;11.100;2022-08-19T04:26:46;22.80;99.90
40556;DHT22;26250;45.422;11.100;2022-08-19T04:29:18;22.80;99.90
40556;DHT22;26250;45.422;11.100;2022-08-19T04:31:49;22.80;99.90
40556;DHT22;26250;45.422;11.100;2022-08-19T04:34:18;22.80;99.90
40556;DHT22;26250;45.422;11.100;2022-08-19T04:36:49;22.90;99.90
40556;DHT22;26250;45.422;11.100;2022-08-19T04:39:26;22.90;99.90
40556;DHT22;26250;45.422;11.100;2022-08-19T04:42:15;22.90;99.90
40556;DHT22;26250;45.422;11.100;2022-08-19T04:45:01;22.90;99.90
40556;DHT22;26250;45.422;11.100;2022-08-19T04:47:31;22.90;99.90
40556;DHT22;26250;45.422;11.100;2022-08-19T04:50:17;22.90;99.90
40556;DHT22;26250;45.422;11.100;2022-08-19T04:52:44;22.90;99.90
40556;DHT22;26250;45.422;11.100;2022-08-19T04:55:12;22.80;99.90
40556;DHT22;26250;45.422;11.100;2022-08-19T04:57:40;22.90;99.90
40556;DHT22;26250;45.422;11.100;2022-08-19T05:00:09;22.90;99.90
40556;DHT22;26250;45.422;11.100;2022-08-19T05:02:36;23.00;99.90
40556;DHT22;26250;45.422;11.100;2022-08-19T05:05:04;23.00;99.90
40556;DHT22;26250;45.422;11.100;2022-08-19T05:07:33;23.10;99.90
40556;DHT22;26250;45.422;11.100;2022-08-19T05:10:00;23.10;99.90
40556;DHT22;26250;45.422;11.100;2022-08-19T05:12:27;23.10;99.90
40556;DHT22;26250;45.422;11.100;2022-08-19T05:14:56;23.10;99.90
40556;DHT22;26250;45.422;11.100;2022-08-19T05:17:25;23.10;99.90
40556;DHT22;26250;45.422;11.100;2022-08-19T05:19:57;23.20;99.90
40556;DHT22;26250;45.422;11.100;2022-08-19T05:22:44;23.30;99.90
40556;DHT22;26250;45.422;11.100;2022-08-19T05:25:14;23.30;99.90
40556;DHT22;26250;45.422;11.100;2022-08-19T05:27:41;23.50;99.90
40556;DHT22;26250;45.422;11.100;2022-08-19T05:30:09;23.70;99.60
40556;DHT22;26250;45.422;11.100;2022-08-19T05:32:38;23.70;99.10
40556;DHT22;26250;45.422;11.100;2022-08-19T05:35:05;23.70;99.10
40556;DHT22;26250;45.422;11.100;2022-08-19T05:37:33;24.00;98.90
40556;DHT22;26250;45.422;11.100;2022-08-19T05:40:00;24.40;98.10
40556;DHT22;26250;45.422;11.100;2022-08-19T05:42:28;24.70;96.80
40556;DHT22;26250;45.422;11.100;2022-08-19T05:44:55;24.90;96.00
40556;DHT22;26250;45.422;11.100;2022-08-19T05:47:23;24.70;96.40
40556;DHT22;26250;45.422;11.100;2022-08-19T05:49:50;24.50;97.10
40556;DHT22;26250;45.422;11.100;2022-08-19T05:52:18;24.40;97.40
40556;DHT22;26250;45.422;11.100;2022-08-19T05:54:52;24.30;97.60
40556;DHT22;26250;45.422;11.100;2022-08-19T05:57:22;24.20;97.50
40556;DHT22;26250;45.422;11.100;2022-08-19T05:59:50;24.00;98.20
40556;DHT22;26250;45.422;11.100;2022-08-19T06:02:28;24.00;98.10
40556;DHT22;26250;45.422;11.100;2022-08-19T06:04:55;24.00;98.20
40556;DHT22;26250;45.422;11.100;2022-08-19T06:07:22;23.80;98.40
40556;DHT22;26250;45.422;11.100;2022-08-19T06:09:49;23.70;99.00
40556;DHT22;26250;45.422;11.100;2022-08-19T06:12:31;23.70;99.10
40556;DHT22;26250;45.422;11.100;2022-08-19T06:15:01;23.60;99.60
40556;DHT22;26250;45.422;11.100;2022-08-19T06:17:29;23.60;99.80
40556;DHT22;26250;45.422;11.100;2022-08-19T06:19:58;23.50;99.90
40556;DHT22;26250;45.422;11.100;2022-08-19T06:22:26;23.50;99.90
40556;DHT22;26250;45.422;11.100;2022-08-19T06:24:54;23.50;99.90
40556;DHT22;26250;45.422;11.100;2022-08-19T06:27:21;23.60;99.90
40556;DHT22;26250;45.422;11.100;2022-08-19T06:29:49;23.60;99.90
40556;DHT22;26250;45.422;11.100;2022-08-19T06:32:17;23.50;99.90
40556;DHT22;26250;45.422;11.100;2022-08-19T06:34:45;23.40;99.90
40556;DHT22;26250;45.422;11.100;2022-08-19T06:37:12;23.50;99.90
40556;DHT22;26250;45.422;11.100;2022-08-19T06:39:42;23.50;99.90
40556;DHT22;26250;45.422;11.100;2022-08-19T06:42:10;23.40;99.90
40556;DHT22;26250;45.422;11.100;2022-08-19T06:44:41;23.40;99.90
40556;DHT22;26250;45.422;11.100;2022-08-19T06:47:20;23.40;99.90
40556;DHT22;26250;45.422;11.100;2022-08-19T06:49:54;23.50;99.90
40556;DHT22;26250;45.422;11.100;2022-08-19T06:52:33;23.50;99.90
40556;DHT22;26250;45.422;11.100;2022-08-19T06:55:04;23.50;99.90
40556;DHT22;26250;45.422;11.100;2022-08-19T06:57:33;23.50;99.90
40556;DHT22;26250;45.422;11.100;2022-08-19T07:00:01;23.50;99.90
40556;DHT22;26250;45.422;11.100;2022-08-19T07:02:28;23.40;99.90
40556;DHT22;26250;45.422;11.100;2022-08-19T07:04:55;23.30;99.90
40556;DHT22;26250;45.422;11.100;2022-08-19T07:07:24;23.30;99.90
40556;DHT22;26250;45.422;11.100;2022-08-19T07:09:51;23.10;99.90
40556;DHT22;26250;45.422;11.100;2022-08-19T07:12:28;23.10;99.90
40556;DHT22;26250;45.422;11.100;2022-08-19T07:14:57;23.20;99.90
40556;DHT22;26250;45.422;11.100;2022-08-19T07:17:25;23.30;99.90
40556;DHT22;26250;45.422;11.100;2022-08-19T07:19:52;23.40;99.90
40556;DHT22;26250;45.422;11.100;2022-08-19T07:22:21;23.40;99.90
40556;DHT22;26250;45.422;11.100;2022-08-19T07:24:51;23.40;99.90
40556;DHT22;26250;45.422;11.100;2022-08-19T07:27:18;23.20;99.90
40556;DHT22;26250;45.422;11.100;2022-08-19T07:29:52;23.20;99.90
40556;DHT22;26250;45.422;11.100;2022-08-19T07:32:23;23.20;99.90
40556;DHT22;26250;45.422;11.100;2022-08-19T07:34:53;23.30;99.90
40556;DHT22;26250;45.422;11.100;2022-08-19T07:37:23;23.30;99.90
40556;DHT22;26250;45.422;11.100;2022-08-19T07:39:59;23.20;99.90
40556;DHT22;26250;45.422;11.100;2022-08-19T07:42:26;23.10;99.90
40556;DHT22;26250;45.422;11.100;2022-08-19T07:44:57;23.00;99.90
40556;DHT22;26250;45.422;11.100;2022-08-19T07:47:25;23.00;99.90
40556;DHT22;26250;45.422;11.100;2022-08-19T07:50:14;23.00;99.90
40556;DHT22;26250;45.422;11.100;2022-08-19T07:52:41;23.10;99.90
40556;DHT22;26250;45.422;11.100;2022-08-19T07:55:15;23.10;99.90
40556;DHT22;26250;45.422;11.100;2022-08-19T07:58:02;23.00;99.90
40556;DHT22;26250;45.422;11.100;2022-08-19T08:00:31;22.90;99.90
40556;DHT22;26250;45.422;11.100;2022-08-19T08:02:58;22.90;99.90
40556;DHT22;26250;45.422;11.100;2022-08-19T08:05:25;22.80;99.90
40556;DHT22;26250;45.422;11.100;2022-08-19T08:08:11;22.80;99.90
40556;DHT22;26250;45.422;11.100;2022-08-19T08:10:58;22.70;99.90
40556;DHT22;26250;45.422;11.100;2022-08-19T08:13:25;22.60;99.90
40556;DHT22;26250;45.422;11.100;2022-08-19T08:15:53;22.60;99.90
40556;DHT22;26250;45.422;11.100;2022-08-19T08:18:25;22.50;99.90
40556;DHT22;26250;45.422;11.100;2022-08-19T08:20:54;22.40;99.90
40556;DHT22;26250;45.422;11.100;2022-08-19T08:23:22;22.50;99.90
40556;DHT22;26250;45.422;11.100;2022-08-19T08:25:54;22.40;99.90
40556;DHT22;26250;45.422;11.100;2022-08-19T08:28:22;22.30;99.90
40556;DHT22;26250;45.422;11.100;2022-08-19T08:30:50;22.40;99.90
40556;DHT22;26250;45.422;11.100;2022-08-19T08:33:22;22.40;99.90
40556;DHT22;26250;45.422;11.100;2022-08-19T08:36:00;22.50;99.90
40556;DHT22;26250;45.422;11.100;2022-08-19T08:38:30;22.60;99.90
40556;DHT22;26250;45.422;11.100;2022-08-19T08:41:31;22.70;99.90
40556;DHT22;26250;45.422;11.100;2022-08-19T08:43:57;22.80;99.90
40556;DHT22;26250;45.422;11.100;2022-08-19T08:46:27;22.80;99.90
40556;DHT22;26250;45.422;11.100;2022-08-19T08:52:04;22.90;99.90
40556;DHT22;26250;45.422;11.100;2022-08-19T08:54:41;22.90;99.90
40556;DHT22;26250;45.422;11.100;2022-08-19T08:59:54;22.90;99.90
40556;DHT22;26250;45.422;11.100;2022-08-19T09:02:23;22.90;99.90
40556;DHT22;26250;45.422;11.100;2022-08-19T09:04:51;22.90;99.90
40556;DHT22;26250;45.422;11.100;2022-08-19T09:15:52;22.50;99.90
40556;DHT22;26250;45.422;11.100;2022-08-19T09:18:21;22.20;99.90
40556;DHT22;26250;45.422;11.100;2022-08-19T09:20:48;22.20;99.90
40556;DHT22;26250;45.422;11.100;2022-08-19T09:23:15;22.20;99.90
40556;DHT22;26250;45.422;11.100;2022-08-19T09:25:42;22.30;99.90
40556;DHT22;26250;45.422;11.100;2022-08-19T09:28:10;22.30;99.90
40556;DHT22;26250;45.422;11.100;2022-08-19T09:30:48;22.20;99.90
40556;DHT22;26250;45.422;11.100;2022-08-19T09:33:15;22.20;99.90
40556;DHT22;26250;45.422;11.100;2022-08-19T09:35:42;22.20;99.90
40556;DHT22;26250;45.422;11.100;2022-08-19T09:38:20;22.30;99.90
40556;DHT22;26250;45.422;11.100;2022-08-19T09:40:48;22.40;99.90
40556;DHT22;26250;45.422;11.100;2022-08-19T09:43:16;22.40;99.90
40556;DHT22;26250;45.422;11.100;2022-08-19T09:46:00;22.50;99.90
40556;DHT22;26250;45.422;11.100;2022-08-19T09:48:27;22.40;99.90
40556;DHT22;26250;45.422;11.100;2022-08-19T09:50:54;22.40;99.90
40556;DHT22;26250;45.422;11.100;2022-08-19T09:53:22;22.50;99.90
40556;DHT22;26250;45.422;11.100;2022-08-19T09:55:51;22.40;99.90
40556;DHT22;26250;45.422;11.100;2022-08-19T09:58:18;22.40;99.90
40556;DHT22;26250;45.422;11.100;2022-08-19T10:00:52;22.40;99.90
40556;DHT22;26250;45.422;11.100;2022-08-19T10:03:20;22.30;99.90
40556;DHT22;26250;45.422;11.100;2022-08-19T10:05:52;22.30;99.90
40556;DHT22;26250;45.422;11.100;2022-08-19T10:08:27;22.30;99.90
40556;DHT22;26250;45.422;11.100;2022-08-19T10:10:55;22.50;99.90
40556;DHT22;26250;45.422;11.100;2022-08-19T10:13:26;22.60;99.90
40556;DHT22;26250;45.422;11.100;2022-08-19T10:15:56;22.60;99.90
40556;DHT22;26250;45.422;11.100;2022-08-19T10:18:24;22.60;99.90
40556;DHT22;26250;45.422;11.100;2022-08-19T10:21:01;22.60;99.90
40556;DHT22;26250;45.422;11.100;2022-08-19T10:23:28;22.70;99.90
40556;DHT22;26250;45.422;11.100;2022-08-19T10:26:01;22.70;99.90
40556;DHT22;26250;45.422;11.100;2022-08-19T10:28:28;22.80;99.90
40556;DHT22;26250;45.422;11.100;2022-08-19T10:30:56;22.80;99.90
40556;DHT22;26250;45.422;11.100;2022-08-19T10:33:22;22.80;99.90
40556;DHT22;26250;45.422;11.100;2022-08-19T10:36:17;22.80;99.90
40556;DHT22;26250;45.422;11.100;2022-08-19T10:38:50;22.70;99.90
40556;DHT22;26250;45.422;11.100;2022-08-19T10:41:33;22.80;99.90
40556;DHT22;26250;45.422;11.100;2022-08-19T10:44:06;22.80;99.90
40556;DHT22;26250;45.422;11.100;2022-08-19T10:46:36;22.90;99.90
40556;DHT22;26250;45.422;11.100;2022-08-19T10:49:04;22.90;99.90
40556;DHT22;26250;45.422;11.100;2022-08-19T10:51:32;23.00;99.90
40556;DHT22;26250;45.422;11.100;2022-08-19T10:54:18;23.00;99.90
40556;DHT22;26250;45.422;11.100;2022-08-19T10:57:00;23.10;99.90
40556;DHT22;26250;45.422;11.100;2022-08-19T10:59:28;23.10;99.90
40556;DHT22;26250;45.422;11.100;2022-08-19T11:02:03;23.20;99.90
40556;DHT22;26250;45.422;11.100;2022-08-19T11:04:30;23.30;99.90
40556;DHT22;26250;45.422;11.100;2022-08-19T11:06:58;23.20;99.90
40556;DHT22;26250;45.422;11.100;2022-08-19T11:09:26;23.30;99.90
40556;DHT22;26250;45.422;11.100;2022-08-19T11:12:00;23.40;99.90
40556;DHT22;26250;45.422;11.100;2022-08-19T11:14:30;23.40;99.90
40556;DHT22;26250;45.422;11.100;2022-08-19T11:17:00;23.50;99.90
40556;DHT22;26250;45.422;11.100;2022-08-19T11:19:27;23.60;99.90
40556;DHT22;26250;45.422;11.100;2022-08-19T11:21:54;23.60;99.90
40556;DHT22;26250;45.422;11.100;2022-08-19T11:24:26;23.70;99.90
40556;DHT22;26250;45.422;11.100;2022-08-19T11:26:55;23.70;99.90
40556;DHT22;26250;45.422;11.100;2022-08-19T11:29:26;23.90;99.90
40556;DHT22;26250;45.422;11.100;2022-08-19T11:31:54;23.90;99.90
40556;DHT22;26250;45.422;11.100;2022-08-19T11:34:24;23.80;99.90
40556;DHT22;26250;45.422;11.100;2022-08-19T11:36:54;23.80;99.90
40556;DHT22;26250;45.422;11.100;2022-08-19T11:39:26;23.80;99.90
40556;DHT22;26250;45.422;11.100;2022-08-19T11:41:53;23.90;99.90
40556;DHT22;26250;45.422;11.100;2022-08-19T11:44:20;24.10;99.90
40556;DHT22;26250;45.422;11.100;2022-08-19T11:46:47;24.10;99.90
40556;DHT22;26250;45.422;11.100;2022-08-19T11:49:15;24.10;99.90
40556;DHT22;26250;45.422;11.100;2022-08-19T11:51:43;24.10;99.90
40556;DHT22;26250;45.422;11.100;2022-08-19T11:54:11;24.10;99.90
40556;DHT22;26250;45.422;11.100;2022-08-19T11:56:39;24.10;99.90
40556;DHT22;26250;45.422;11.100;2022-08-19T11:59:06;24.10;99.90
40556;DHT22;26250;45.422;11.100;2022-08-19T12:01:40;24.20;99.90
40556;DHT22;26250;45.422;11.100;2022-08-19T12:04:10;24.20;99.90
40556;DHT22;26250;45.422;11.100;2022-08-19T12:06:39;24.30;99.90
40556;DHT22;26250;45.422;11.100;2022-08-19T12:09:08;24.50;99.90
40556;DHT22;26250;45.422;11.100;2022-08-19T12:11:36;24.60;99.90
40556;DHT22;26250;45.422;11.100;2022-08-19T12:14:04;24.60;99.90
40556;DHT22;26250;45.422;11.100;2022-08-19T12:16:32;24.60;99.90
40556;DHT22;26250;45.422;11.100;2022-08-19T12:19:00;24.60;99.90
40556;DHT22;26250;45.422;11.100;2022-08-19T12:21:32;24.60;99.90
40556;DHT22;26250;45.422;11.100;2022-08-19T12:24:01;24.60;99.90
40556;DHT22;26250;45.422;11.100;2022-08-19T12:26:29;24.60;99.90
40556;DHT22;26250;45.422;11.100;2022-08-19T12:28:58;24.60;99.90
40556;DHT22;26250;45.422;11.100;2022-08-19T12:31:29;24.50;99.90
40556;DHT22;26250;45.422;11.100;2022-08-19T12:33:56;24.50;99.90
40556;DHT22;26250;45.422;11.100;2022-08-19T12:36:24;24.60;99.90
40556;DHT22;26250;45.422;11.100;2022-08-19T12:38:52;24.60;99.90
40556;DHT22;26250;45.422;11.100;2022-08-19T12:41:19;24.60;99.90
40556;DHT22;26250;45.422;11.100;2022-08-19T12:43:49;24.70;99.90
40556;DHT22;26250;45.422;11.100;2022-08-19T12:46:18;24.70;99.90
40556;DHT22;26250;45.422;11.100;2022-08-19T12:48:47;24.70;99.90
40556;DHT22;26250;45.422;11.100;2022-08-19T12:51:20;24.70;99.90
40556;DHT22;26250;45.422;11.100;2022-08-19T12:53:47;24.60;99.90
40556;DHT22;26250;45.422;11.100;2022-08-19T12:56:15;24.60;99.90
40556;DHT22;26250;45.422;11.100;2022-08-19T12:58:48;24.70;99.90
40556;DHT22;26250;45.422;11.100;2022-08-19T13:01:19;24.80;99.70
40556;DHT22;26250;45.422;11.100;2022-08-19T13:03:49;24.70;99.90
40556;DHT22;26250;45.422;11.100;2022-08-19T13:06:17;24.70;99.50
40556;DHT22;26250;45.422;11.100;2022-08-19T13:08:46;24.70;99.70
40556;DHT22;26250;45.422;11.100;2022-08-19T13:11:19;24.80;99.70
40556;DHT22;26250;45.422;11.100;2022-08-19T13:13:48;24.90;98.80
40556;DHT22;26250;45.422;11.100;2022-08-19T13:16:18;24.90;98.40
40556;DHT22;26250;45.422;11.100;2022-08-19T13:18:47;24.90;98.90
40556;DHT22;26250;45.422;11.100;2022-08-19T13:21:14;24.90;98.30
40556;DHT22;26250;45.422;11.100;2022-08-19T13:23:42;24.90;98.70
40556;DHT22;26250;45.422;11.100;2022-08-19T13:26:10;25.00;98.70
40556;DHT22;26250;45.422;11.100;2022-08-19T13:28:38;25.00;98.30
40556;DHT22;26250;45.422;11.100;2022-08-19T13:31:26;25.10;98.60
40556;DHT22;26250;45.422;11.100;2022-08-19T13:34:12;25.20;98.80
40556;DHT22;26250;45.422;11.100;2022-08-19T13:36:39;25.30;98.50
40556;DHT22;26250;45.422;11.100;2022-08-19T13:39:07;25.30;97.70
40556;DHT22;26250;45.422;11.100;2022-08-19T13:41:36;25.40;97.50
40556;DHT22;26250;45.422;11.100;2022-08-19T13:44:04;25.50;97.80
40556;DHT22;26250;45.422;11.100;2022-08-19T13:46:32;25.60;97.20
40556;DHT22;26250;45.422;11.100;2022-08-19T13:48:59;25.50;96.10
40556;DHT22;26250;45.422;11.100;2022-08-19T13:51:27;25.50;97.00
40556;DHT22;26250;45.422;11.100;2022-08-19T13:53:55;25.60;95.70
40556;DHT22;26250;45.422;11.100;2022-08-19T13:56:22;25.70;96.00
40556;DHT22;26250;45.422;11.100;2022-08-19T13:58:52;25.70;96.20
40556;DHT22;26250;45.422;11.100;2022-08-19T14:01:23;25.70;96.10
40556;DHT22;26250;45.422;11.100;2022-08-19T14:03:50;25.70;96.00
40556;DHT22;26250;45.422;11.100;2022-08-19T14:06:18;25.70;96.20
40556;DHT22;26250;45.422;11.100;2022-08-19T14:08:45;25.60;95.80
40556;DHT22;26250;45.422;11.100;2022-08-19T14:11:13;25.70;96.00
40556;DHT22;26250;45.422;11.100;2022-08-19T14:13:40;25.80;95.70
40556;DHT22;26250;45.422;11.100;2022-08-19T14:16:09;25.70;94.50
40556;DHT22;26250;45.422;11.100;2022-08-19T14:18:37;25.70;94.50
40556;DHT22;26250;45.422;11.100;2022-08-19T14:21:05;25.70;94.80
40556;DHT22;26250;45.422;11.100;2022-08-19T14:23:33;25.70;94.70
40556;DHT22;26250;45.422;11.100;2022-08-19T14:26:10;25.80;94.60
40556;DHT22;26250;45.422;11.100;2022-08-19T14:28:38;25.90;95.30
40556;DHT22;26250;45.422;11.100;2022-08-19T14:31:12;25.80;95.10
40556;DHT22;26250;45.422;11.100;2022-08-19T14:33:39;25.70;95.70
40556;DHT22;26250;45.422;11.100;2022-08-19T14:36:07;25.70;95.70
40556;DHT22;26250;45.422;11.100;2022-08-19T14:38:34;25.80;95.10
40556;DHT22;26250;45.422;11.100;2022-08-19T14:41:16;25.80;94.90
40556;DHT22;26250;45.422;11.100;2022-08-19T14:43:44;25.90;95.10
40556;DHT22;26250;45.422;11.100;2022-08-19T14:46:21;25.90;95.30
40556;DHT22;26250;45.422;11.100;2022-08-19T14:48:49;25.90;95.50
40556;DHT22;26250;45.422;11.100;2022-08-19T14:51:20;25.90;95.40
40556;DHT22;26250;45.422;11.100;2022-08-19T14:53:47;25.90;96.00
40556;DHT22;26250;45.422;11.100;2022-08-19T14:56:21;25.90;95.70
40556;DHT22;26250;45.422;11.100;2022-08-19T14:58:49;25.90;95.60
40556;DHT22;26250;45.422;11.100;2022-08-19T15:01:19;26.00;95.40
40556;DHT22;26250;45.422;11.100;2022-08-19T15:03:48;26.10;95.20
40556;DHT22;26250;45.422;11.100;2022-08-19T15:06:15;26.00;95.00
40556;DHT22;26250;45.422;11.100;2022-08-19T15:08:42;26.10;94.80
40556;DHT22;26250;45.422;11.100;2022-08-19T15:11:14;26.10;95.00
40556;DHT22;26250;45.422;11.100;2022-08-19T15:13:43;26.10;94.20
40556;DHT22;26250;45.422;11.100;2022-08-19T15:16:11;26.10;93.90
40556;DHT22;26250;45.422;11.100;2022-08-19T15:18:45;26.20;94.20
40556;DHT22;26250;45.422;11.100;2022-08-19T15:21:14;26.20;94.10
40556;DHT22;26250;45.422;11.100;2022-08-19T15:23:54;26.30;94.20
40556;DHT22;26250;45.422;11.100;2022-08-19T15:26:22;26.40;93.80
40556;DHT22;26250;45.422;11.100;2022-08-19T15:28:49;26.40;93.30
40556;DHT22;26250;45.422;11.100;2022-08-19T15:31:20;26.30;92.80
40556;DHT22;26250;45.422;11.100;2022-08-19T15:33:55;26.20;92.90
40556;DHT22;26250;45.422;11.100;2022-08-19T15:36:24;26.20;93.00
40556;DHT22;26250;45.422;11.100;2022-08-19T15:38:51;26.30;93.10
40556;DHT22;26250;45.422;11.100;2022-08-19T15:41:21;26.30;92.30
40556;DHT22;26250;45.422;11.100;2022-08-19T15:43:58;26.30;92.10
40556;DHT22;26250;45.422;11.100;2022-08-19T15:46:28;26.20;92.00
40556;DHT22;26250;45.422;11.100;2022-08-19T15:48:57;26.30;92.50
40556;DHT22;26250;45.422;11.100;2022-08-19T15:51:28;26.30;92.50
40556;DHT22;26250;45.422;11.100;2022-08-19T15:53:57;26.20;92.50